Time;durP1;ratioP1;P1;durP2;ratioP2;P2;SDS_P1;SDS_P2;PMS_P1;PMS_P2;Temp;Humidity;BMP_temperature;BMP_pressure;BME280_temperature;BME280_humidity;BME280_pressure;Samples;Min_cycle;Max_cycle;Signal;HPM_P1;HPM_P2
2021/07/11 00:00:35;;;;;;;10.75;9.55;;;;;;;14.83;75.49;100769.87;1705632;83;21171;-73
2021/07/11 00:03:03;;;;;;;10.28;8.88;;;;;;;14.68;75.56;100747.58;1705539;83;20976;-73
2021/07/11 00:05:29;;;;;;;16.67;10.38;;;;;;;14.68;75.56;100747.58;1706026;83;21530;-73
2021/07/11 00:07:55;;;;;;;16.87;12.00;;;;;;;14.78;75.65;100772.78;1706273;83;21547;-73
2021/07/11 00:10:21;;;;;;;18.55;12.63;;;;;;;14.76;75.71;100767.61;1706009;83;21055;-73
2021/07/11 00:12:48;;;;;;;12.88;11.48;;;;;;;14.73;75.80;100764.47;1715786;83;21121;-73
2021/07/11 00:15:17;;;;;;;15.43;10.78;;;;;;;14.71;75.85;100766.49;1715970;83;21042;-73
2021/07/11 00:17:43;;;;;;;14.05;10.88;;;;;;;14.68;75.91;100764.19;1709829;82;21036;-73
2021/07/11 00:20:14;;;;;;;12.13;9.50;;;;;;;14.66;75.95;100768.92;1732260;82;21024;-73
2021/07/11 00:22:40;;;;;;;12.40;8.83;;;;;;;14.65;76.02;100767.25;1710817;83;21071;-73
2021/07/11 00:25:07;;;;;;;11.00;9.45;;;;;;;14.59;76.15;100757.27;1710674;83;21782;-73
2021/07/11 00:27:33;;;;;;;13.68;9.25;;;;;;;14.59;76.15;100757.27;1710891;83;20933;-73
2021/07/11 00:29:59;;;;;;;10.90;8.78;;;;;;;14.57;76.21;100760.13;1710543;83;21071;-73
2021/07/11 00:32:25;;;;;;;11.93;9.18;;;;;;;14.53;76.34;100757.48;1710909;83;21118;-72
2021/07/11 00:34:51;;;;;;;11.45;9.33;;;;;;;14.53;76.34;100757.48;1710559;83;21035;-72
2021/07/11 00:37:18;;;;;;;11.38;8.50;;;;;;;14.54;76.39;100761.01;1710781;83;21289;-73
2021/07/11 00:39:44;;;;;;;29.00;9.53;;;;;;;14.50;76.45;100768.09;1731934;82;21012;-73
2021/07/11 00:42:16;;;;;;;12.60;9.28;;;;;;;14.44;76.52;100766.16;1732014;82;21000;-73
2021/07/11 00:44:42;;;;;;;10.53;8.80;;;;;;;14.45;76.61;100769.69;1732191;82;21017;-73
2021/07/11 00:47:12;;;;;;;9.58;8.35;;;;;;;14.44;76.71;100776.91;1732221;82;21052;-73
2021/07/11 00:49:43;;;;;;;12.00;8.75;;;;;;;14.44;76.79;100768.02;1732292;82;21070;-73
2021/07/11 00:52:07;;;;;;;9.98;8.98;;;;;;;14.44;76.84;100770.19;1730996;82;21039;-73
2021/07/11 00:54:33;;;;;;;13.15;9.25;;;;;;;14.43;76.89;100768.52;1732049;82;21130;-72
2021/07/11 00:56:59;;;;;;;12.82;9.58;;;;;;;14.41;76.96;100769.23;1732077;82;21570;-73
2021/07/11 00:59:25;;;;;;;12.03;9.43;;;;;;;14.41;77.03;100773.25;1731807;82;20996;-73
2021/07/11 01:01:56;;;;;;;11.70;9.63;;;;;;;14.40;77.10;100771.58;1731942;82;21826;-73
2021/07/11 01:04:39;;;;;;;16.77;10.90;;;;;;;14.39;77.13;100767.22;1732155;82;21028;-73
2021/07/11 01:07:06;;;;;;;11.40;9.73;;;;;;;14.38;77.19;100761.55;1730661;82;21056;-72
2021/07/11 01:09:36;;;;;;;11.93;9.15;;;;;;;14.37;77.25;100762.56;1732029;82;21445;-72
2021/07/11 01:12:08;;;;;;;;;;;;;;;14.38;77.32;100764.23;1734496;82;21075;-72
2021/07/11 01:14:34;;;;;;;14.07;9.30;;;;;;;14.38;77.36;100761.55;1731870;82;21083;-73
2021/07/11 01:17:00;;;;;;;11.57;9.35;;;;;;;14.38;77.42;100764.73;1731847;82;21020;-73
2021/07/11 01:19:43;;;;;;;17.35;9.30;;;;;;;14.37;77.45;100759.88;1731781;82;21068;-72
2021/07/11 01:22:13;;;;;;;11.45;9.20;;;;;;;14.37;77.50;100763.91;1731663;82;20992;-72
2021/07/11 01:24:59;;;;;;;11.38;9.60;;;;;;;14.36;77.57;100762.23;1732157;82;21076;-72
2021/07/11 01:27:25;;;;;;;15.15;9.60;;;;;;;14.37;77.63;100765.24;1731926;82;21860;-72
2021/07/11 01:29:51;;;;;;;13.62;9.75;;;;;;;14.37;77.68;100767.09;1731668;82;21587;-72
2021/07/11 01:32:18;;;;;;;10.65;9.48;;;;;;;14.37;77.76;100762.56;1711035;82;21544;-72
2021/07/11 01:34:44;;;;;;;11.40;10.23;;;;;;;14.35;77.80;100761.92;1732066;82;21461;-73
2021/07/11 01:37:10;;;;;;;12.73;9.85;;;;;;;14.35;77.87;100763.27;1732135;82;21047;-73
2021/07/11 01:39:37;;;;;;;13.05;8.93;;;;;;;14.36;77.92;100768.09;1731730;82;21804;-72
2021/07/11 01:42:03;;;;;;;13.40;9.73;;;;;;;14.35;78.00;100763.27;1731844;82;21122;-72
2021/07/11 01:44:29;;;;;;;19.45;11.53;;;;;;;14.36;78.05;100766.25;1732069;82;21472;-73
2021/07/11 01:46:55;;;;;;;12.47;9.10;;;;;;;14.36;78.11;100762.73;1732013;82;21536;-72
2021/07/11 01:49:21;;;;;;;14.85;8.95;;;;;;;14.34;78.17;100768.30;1732093;82;20984;-72
2021/07/11 01:51:48;;;;;;;9.50;8.50;;;;;;;14.33;78.21;100767.09;1731740;82;21116;-72
2021/07/11 01:54:14;;;;;;;12.20;8.83;;;;;;;14.33;78.29;100771.96;1684624;82;21074;-73
2021/07/11 01:56:40;;;;;;;10.93;9.45;;;;;;;14.32;78.32;100770.82;1675892;84;21136;-73
2021/07/11 01:59:09;;;;;;;11.68;9.55;;;;;;;14.33;78.39;100773.30;1691813;84;21635;-72
2021/07/11 02:01:35;;;;;;;9.95;8.53;;;;;;;14.32;78.45;100774.84;1687833;84;21087;-73
2021/07/11 02:04:02;;;;;;;10.98;8.73;;;;;;;14.31;78.49;100775.35;1681826;83;21528;-72
2021/07/11 02:06:28;;;;;;;10.05;8.28;;;;;;;14.30;78.55;100771.00;1703032;83;21492;-73
2021/07/11 02:08:54;;;;;;;12.00;8.13;;;;;;;14.30;78.57;100773.67;1690162;83;21016;-73
2021/07/11 02:11:20;;;;;;;11.50;8.20;;;;;;;14.30;78.62;100776.86;1705391;82;21550;-72
2021/07/11 02:14:12;;;;;;;9.03;7.90;;;;;;;14.30;78.67;100776.36;1742401;81;21532;-72
2021/07/11 02:17:01;;;;;;;9.38;7.90;;;;;;;14.30;78.70;100779.05;1737920;81;22389;-72
2021/07/11 02:19:28;;;;;;;9.45;8.18;;;;;;;14.29;78.79;100778.70;1736629;81;21063;-72
2021/07/11 02:21:54;;;;;;;11.43;8.45;;;;;;;14.29;78.83;100778.70;1740638;81;21482;-72
2021/07/11 02:24:21;;;;;;;8.68;7.75;;;;;;;14.30;78.86;100780.38;1736594;81;21077;-72
2021/07/11 02:26:47;;;;;;;8.70;7.80;;;;;;;14.31;78.91;100782.56;1748292;81;21090;-72
2021/07/11 02:29:14;;;;;;;13.53;7.90;;;;;;;14.31;78.94;100784.74;1749571;81;21533;-72
2021/07/11 02:31:41;;;;;;;8.73;7.40;;;;;;;14.31;78.97;100782.06;1746719;81;21055;-72
2021/07/11 02:34:10;;;;;;;8.40;7.50;;;;;;;14.30;78.99;100788.43;1768061;81;21071;-72
2021/07/11 02:36:36;;;;;;;8.50;7.37;;;;;;;14.29;79.06;100789.44;1768066;81;21003;-72
2021/07/11 02:39:11;;;;;;;9.90;7.10;;;;;;;14.31;79.12;100787.42;1768158;80;21534;-72
2021/07/11 02:41:40;;;;;;;7.28;6.55;;;;;;;14.32;79.14;100782.36;1754999;81;21067;-72
2021/07/11 02:44:10;;;;;;;9.90;7.03;;;;;;;14.34;79.19;100781.72;1768506;81;21456;-72
2021/07/11 02:46:39;;;;;;;10.30;6.95;;;;;;;14.35;79.23;100791.44;1769316;80;20992;-72
2021/07/11 02:49:07;;;;;;;;;;;;;;;14.34;79.25;100789.77;1770421;81;20995;-73
2021/07/11 02:51:37;;;;;;;8.20;6.75;;;;;;;14.35;79.28;100788.76;1766736;81;20184;-72
2021/07/11 02:54:03;;;;;;;9.33;6.80;;;;;;;14.36;79.32;100784.20;1765067;80;21909;-72
2021/07/11 02:56:38;;;;;;;9.13;6.85;;;;;;;14.38;79.31;100783.52;1766789;81;21020;-72
2021/07/11 02:59:05;;;;;;;13.08;7.03;;;;;;;14.38;79.34;100785.70;1767184;81;21125;-72
2021/07/11 03:01:31;;;;;;;9.05;7.67;;;;;;;14.39;79.38;100786.00;1766700;81;20991;-72
2021/07/11 03:03:57;;;;;;;8.10;6.55;;;;;;;14.42;79.38;100787.00;1767311;81;21098;-73
2021/07/11 03:06:23;;;;;;;7.67;6.87;;;;;;;14.46;79.40;100790.95;1747131;81;21654;-72
2021/07/11 03:08:49;;;;;;;8.73;7.33;;;;;;;14.49;79.42;100790.58;1769203;81;20980;-72
2021/07/11 03:11:15;;;;;;;14.73;7.60;;;;;;;14.52;79.42;100791.24;1768986;80;20995;-72
2021/07/11 03:13:41;;;;;;;11.03;7.12;;;;;;;14.53;79.46;100796.41;1774453;80;20991;-72
2021/07/11 03:16:07;;;;;;;12.47;7.10;;;;;;;14.54;79.50;100798.08;1755048;80;21039;-72
2021/07/11 03:18:37;;;;;;;9.55;6.72;;;;;;;14.57;79.52;100799.55;1736842;82;21635;-73
2021/07/11 03:21:05;;;;;;;8.85;7.12;;;;;;;14.58;79.54;100801.23;1737180;82;20941;-72
2021/07/11 03:23:33;;;;;;;11.88;7.28;;;;;;;14.62;79.55;100802.53;1743739;81;21055;-72
2021/07/11 03:25:59;;;;;;;11.43;7.40;;;;;;;14.65;79.58;100798.12;1766871;81;21590;-72
2021/07/11 03:28:25;;;;;;;15.35;6.22;;;;;;;14.68;79.59;100800.43;1766972;80;20968;-72
2021/07/11 03:30:51;;;;;;;11.00;6.92;;;;;;;14.72;79.59;100801.22;1766835;81;21135;-72
2021/07/11 03:33:18;;;;;;;10.03;6.53;;;;;;;14.82;79.67;100798.23;1766967;81;21007;-72
2021/07/11 03:35:50;;;;;;;7.87;6.80;;;;;;;14.95;79.69;100797.08;1766667;81;21008;-73
2021/07/11 03:38:22;;;;;;;8.93;6.83;;;;;;;15.16;79.69;100809.21;1767038;81;21004;-72
2021/07/11 03:40:53;;;;;;;9.45;5.83;;;;;;;15.98;80.28;100780.00;1767023;81;21599;-73
2021/07/11 03:43:20;;;;;;;6.95;5.80;;;;;;;17.27;80.01;100800.29;1766774;81;21233;-73
2021/07/11 03:45:46;;;;;;;8.48;5.25;;;;;;;18.41;79.53;100805.83;1766750;81;21000;-73
2021/07/11 03:48:22;;;;;;;9.23;5.70;;;;;;;19.41;78.99;100807.99;1766972;81;20992;-73
2021/07/11 03:50:58;;;;;;;6.42;4.85;;;;;;;20.23;78.35;100801.48;1738550;82;21526;-74
2021/07/11 03:53:27;;;;;;;7.65;4.40;;;;;;;20.86;77.47;100795.85;1738400;82;21056;-74
2021/07/11 03:55:53;;;;;;;7.15;3.90;;;;;;;21.26;76.98;100794.30;1738676;82;21624;-74
2021/07/11 03:58:21;;;;;;;4.45;4.05;;;;;;;22.24;76.38;100800.05;1738235;82;20980;-74
2021/07/11 04:00:54;;;;;;;5.28;3.90;;;;;;;22.98;75.35;100798.42;1738114;82;20954;-74
2021/07/11 04:03:17;;;;;;;6.78;4.03;;;;;;;23.44;74.41;100799.33;1736925;81;21011;-74
2021/07/11 04:05:43;;;;;;;5.03;3.85;;;;;;;23.89;73.23;100800.13;1737623;80;20999;-74
2021/07/11 04:08:13;;;;;;;8.70;4.40;;;;;;;24.26;72.50;100805.40;1764160;80;22396;-74
2021/07/11 04:10:40;;;;;;;6.62;3.72;;;;;;;24.93;71.52;100798.42;1763826;81;20983;-74
2021/07/11 04:13:06;;;;;;;5.50;3.87;;;;;;;25.60;70.10;100798.08;1764012;81;21035;-74
2021/07/11 04:15:33;;;;;;;7.10;3.87;;;;;;;25.78;68.87;100800.44;1763983;81;21515;-74
2021/07/11 04:18:04;;;;;;;9.33;4.12;;;;;;;26.18;67.94;100800.77;1764095;80;20865;-74
2021/07/11 04:20:30;;;;;;;5.12;3.45;;;;;;;26.71;66.83;100801.62;1759062;81;21560;-75
2021/07/11 04:22:57;;;;;;;6.22;3.83;;;;;;;26.99;65.59;100805.34;1758583;81;20984;-74
2021/07/11 04:25:23;;;;;;;11.30;4.40;;;;;;;27.29;64.47;100804.08;1737699;81;21348;-74
2021/07/11 04:27:50;;;;;;;4.08;3.30;;;;;;;27.57;63.33;100801.42;1758701;81;21677;-74
2021/07/11 04:30:17;;;;;;;3.65;3.35;;;;;;;27.61;62.31;100800.33;1759055;81;20976;-74
2021/07/11 04:32:44;;;;;;;6.80;3.30;;;;;;;27.84;61.53;100802.52;1755805;81;21883;-74
2021/07/11 04:35:11;;;;;;;4.35;3.30;;;;;;;27.89;60.50;100810.76;1738385;82;20883;-75
2021/07/11 04:37:37;;;;;;;8.48;3.95;;;;;;;27.85;59.33;100806.91;1738564;82;20986;-74
2021/07/11 04:40:04;;;;;;;4.50;3.27;;;;;;;27.46;58.85;100814.00;1738572;82;20994;-74
2021/07/11 04:42:30;;;;;;;5.92;3.37;;;;;;;26.87;59.05;100806.67;1737825;82;21002;-75
2021/07/11 04:44:56;;;;;;;5.50;3.47;;;;;;;26.26;59.14;100813.97;1748174;81;21897;-75
2021/07/11 04:47:22;;;;;;;5.35;3.30;;;;;;;25.81;59.48;100814.41;1758911;81;21364;-75
2021/07/11 04:49:48;;;;;;;5.85;3.40;;;;;;;25.54;59.46;100804.59;1758563;81;20915;-75
2021/07/11 04:52:14;;;;;;;3.77;3.33;;;;;;;25.33;59.42;100808.99;1760175;81;20948;-75
2021/07/11 04:54:40;;;;;;;4.22;3.12;;;;;;;25.50;59.45;100804.25;1717943;81;20984;-75
2021/07/11 04:57:06;;;;;;;3.60;2.45;;;;;;;25.74;59.27;100806.14;1761977;80;21696;-74
2021/07/11 04:59:33;;;;;;;4.95;3.27;;;;;;;25.66;59.16;100807.97;1763441;81;20904;-75
2021/07/11 05:01:59;;;;;;;3.37;2.67;;;;;;;25.78;59.02;100808.64;1763364;81;21019;-75
2021/07/11 05:04:25;;;;;;;4.70;2.60;;;;;;;26.05;58.86;100803.94;1764161;80;20980;-75
2021/07/11 05:06:51;;;;;;;3.42;2.85;;;;;;;26.11;58.56;100802.87;1763907;81;21039;-75
2021/07/11 05:09:17;;;;;;;3.00;2.25;;;;;;;26.00;58.38;100805.81;1763219;81;21975;-75
2021/07/11 05:11:43;;;;;;;4.42;2.62;;;;;;;25.85;58.20;100809.25;1746089;81;20971;-75
2021/07/11 05:14:09;;;;;;;2.72;2.52;;;;;;;25.63;57.99;100801.66;1746112;82;21002;-75
2021/07/11 05:16:35;;;;;;;3.60;2.50;;;;;;;25.48;57.90;100804.20;1746295;81;21054;-75
2021/07/11 05:19:02;;;;;;;4.25;2.70;;;;;;;25.61;57.81;100804.67;1757265;81;20987;-75
2021/07/11 05:21:29;;;;;;;4.22;2.85;;;;;;;25.66;57.49;100802.50;1742910;81;22427;-75
2021/07/11 05:23:57;;;;;;;4.67;2.70;;;;;;;25.79;57.38;100807.56;1665911;86;21029;-75
2021/07/11 05:26:23;;;;;;;3.02;2.50;;;;;;;25.94;57.16;100802.20;1669598;86;20980;-75
2021/07/11 05:28:50;;;;;;;2.45;2.25;;;;;;;25.93;56.96;100808.74;1669821;86;21035;-75
2021/07/11 05:31:16;;;;;;;3.87;2.27;;;;;;;25.95;56.86;100807.96;1669748;86;21590;-75
2021/07/11 05:33:42;;;;;;;3.70;2.27;;;;;;;26.06;56.76;100807.50;1650272;87;21474;-75
2021/07/11 05:36:09;;;;;;;3.50;2.70;;;;;;;26.01;56.38;100804.17;1704223;84;20968;-75
2021/07/11 05:38:36;;;;;;;3.70;2.00;;;;;;;25.97;56.24;100808.51;1703923;84;21009;-75
2021/07/11 05:41:02;;;;;;;2.80;2.10;;;;;;;25.88;56.04;100811.99;1707127;81;21052;-75
2021/07/11 05:43:28;;;;;;;2.15;1.72;;;;;;;25.77;55.77;100806.98;1759093;80;21035;-75
2021/07/11 05:45:54;;;;;;;3.27;2.15;;;;;;;25.62;55.35;100798.64;1749013;80;21902;-75
2021/07/11 05:48:20;;;;;;;4.45;2.65;;;;;;;25.61;55.07;100801.11;1745965;82;20903;-75
2021/07/11 05:50:46;;;;;;;3.15;2.42;;;;;;;25.73;55.03;100803.11;1746899;81;20994;-75
2021/07/11 05:53:12;;;;;;;4.10;2.47;;;;;;;25.85;54.97;100803.78;1746364;82;20982;-75
2021/07/11 05:55:39;;;;;;;3.00;2.20;;;;;;;26.06;54.99;100802.86;1746635;82;21022;-75
2021/07/11 05:58:06;;;;;;;2.60;2.40;;;;;;;26.16;54.77;100796.63;1746002;82;21929;-75
2021/07/11 06:00:32;;;;;;;2.12;1.90;;;;;;;26.27;54.73;100796.47;1746518;82;20987;-75
2021/07/11 06:02:58;;;;;;;2.10;1.90;;;;;;;26.19;54.57;100799.69;1745858;82;21444;-75
2021/07/11 06:05:24;;;;;;;2.55;2.10;;;;;;;26.27;54.55;100793.74;1746396;82;21573;-75
2021/07/11 06:07:50;;;;;;;2.65;2.30;;;;;;;26.59;54.45;100795.56;1745550;82;21507;-75
2021/07/11 06:10:16;;;;;;;2.35;1.80;;;;;;;26.59;54.16;100791.46;1748340;81;21852;-75
2021/07/11 06:12:43;;;;;;;1.80;1.70;;;;;;;26.75;54.01;100791.80;1759094;81;20976;-75
2021/07/11 06:15:10;;;;;;;2.15;1.77;;;;;;;26.96;53.88;100793.56;1758758;81;20992;-75
2021/07/11 06:17:36;;;;;;;1.72;1.50;;;;;;;26.76;53.59;100787.98;1727462;81;21425;-75
2021/07/11 06:20:09;;;;;;;2.30;1.95;;;;;;;26.63;53.50;100785.20;1723576;83;20973;-75
2021/07/11 06:22:36;;;;;;;2.65;1.90;;;;;;;26.41;53.34;100780.42;1742160;81;22623;-75
2021/07/11 06:25:06;;;;;;;2.05;1.85;;;;;;;26.44;53.16;100783.16;1751326;81;20963;-75
2021/07/11 06:27:36;;;;;;;2.75;1.70;;;;;;;26.43;52.96;100783.70;1760810;81;21031;-75
2021/07/11 06:30:05;;;;;;;4.60;2.40;;;;;;;26.29;52.72;100785.25;1761519;81;20988;-75
2021/07/11 06:32:31;;;;;;;4.65;2.25;;;;;;;26.14;52.51;100785.14;1762724;81;20996;-75
2021/07/11 06:34:57;;;;;;;2.87;2.12;;;;;;;26.09;52.42;100787.83;1758560;81;21839;-75
2021/07/11 06:37:23;;;;;;;2.50;2.30;;;;;;;25.97;52.34;100785.81;1761130;81;20951;-75
2021/07/11 06:39:50;;;;;;;5.00;2.55;;;;;;;25.92;52.42;100783.88;1761617;81;20987;-75
2021/07/11 06:42:16;;;;;;;4.35;2.33;;;;;;;26.03;52.50;100789.72;1761479;81;21035;-75
2021/07/11 06:44:42;;;;;;;6.62;2.25;;;;;;;26.14;52.39;100787.30;1761394;81;21027;-75
2021/07/11 06:47:08;;;;;;;8.18;2.33;;;;;;;26.07;52.33;100790.02;1761379;81;21936;-75
2021/07/11 06:49:35;;;;;;;11.90;2.50;;;;;;;25.94;52.30;100789.90;1750191;81;21049;-75
2021/07/11 06:52:03;;;;;;;2.00;1.70;;;;;;;26.03;52.25;100796.55;1731706;82;21060;-75
2021/07/11 06:54:29;;;;;;;3.92;1.80;;;;;;;26.16;52.23;100792.53;1731902;82;21035;-75
2021/07/11 06:56:55;;;;;;;6.50;1.77;;;;;;;26.17;51.96;100792.31;1763171;81;20986;-75
2021/07/11 06:59:21;;;;;;;3.92;2.00;;;;;;;26.30;51.86;100790.48;1741758;81;21701;-75
2021/07/11 07:01:47;;;;;;;4.05;1.98;;;;;;;26.31;51.74;100792.13;1733427;82;21039;-75
2021/07/11 07:04:13;;;;;;;5.35;1.95;;;;;;;26.19;51.54;100791.49;1673164;84;21051;-75
2021/07/11 07:06:39;;;;;;;4.05;2.15;;;;;;;26.19;51.57;100788.75;1673399;85;21043;-75
2021/07/11 07:09:05;;;;;;;3.60;1.75;;;;;;;26.29;51.43;100787.98;1677684;85;21035;-75
2021/07/11 07:11:31;;;;;;;3.50;1.87;;;;;;;26.45;51.27;100788.92;1674644;84;21897;-75
2021/07/11 07:13:57;;;;;;;7.45;1.62;;;;;;;26.37;50.96;100782.57;1675510;84;21019;-75
2021/07/11 07:16:23;;;;;;;3.92;1.80;;;;;;;26.17;50.72;100782.73;1674255;85;21087;-74
2021/07/11 07:18:49;;;;;;;5.03;1.80;;;;;;;26.08;50.48;100780.70;1679918;84;21095;-75
2021/07/11 07:21:15;;;;;;;3.12;1.52;;;;;;;26.10;50.48;100777.19;1702624;83;21011;-74
2021/07/11 07:23:42;;;;;;;2.62;1.47;;;;;;;26.33;50.50;100787.20;1768042;81;21982;-74
2021/07/11 07:26:08;;;;;;;1.60;1.30;;;;;;;26.48;50.39;100782.91;1768910;81;21429;-74
2021/07/11 07:28:34;;;;;;;3.45;1.22;;;;;;;26.42;49.99;100784.81;1769141;80;21368;-74
2021/07/11 07:31:00;;;;;;;3.08;1.30;;;;;;;26.19;49.47;100779.19;1747337;80;20981;-74
2021/07/11 07:33:26;;;;;;;2.90;1.25;;;;;;;26.10;49.22;100786.75;1743567;81;21336;-74
2021/07/11 07:35:52;;;;;;;3.08;1.62;;;;;;;25.93;48.89;100783.34;1753811;80;21792;-74
2021/07/11 07:38:18;;;;;;;4.08;1.27;;;;;;;26.00;49.03;100779.28;1766767;80;20992;-74
2021/07/11 07:40:44;;;;;;;8.05;1.75;;;;;;;26.07;48.75;100781.24;1766640;81;20992;-74
2021/07/11 07:43:13;;;;;;;1.95;1.60;;;;;;;26.13;48.69;100776.11;1766585;81;20916;-74
2021/07/11 07:45:38;;;;;;;1.62;1.50;;;;;;;26.20;48.54;100776.73;1766535;80;21091;-74
2021/07/11 07:48:05;;;;;;;4.08;1.67;;;;;;;26.16;48.37;100774.22;1766660;80;22476;-74
2021/07/11 07:50:31;;;;;;;2.60;1.60;;;;;;;26.21;48.33;100774.83;1765967;81;21046;-74
2021/07/11 07:52:57;;;;;;;6.05;1.70;;;;;;;26.21;48.20;100777.00;1766917;80;21035;-74
2021/07/11 07:55:23;;;;;;;6.45;1.50;;;;;;;26.20;48.17;100768.53;1766426;81;21019;-74
2021/07/11 07:57:49;;;;;;;2.58;1.67;;;;;;;26.14;47.91;100769.53;1767033;81;20999;-74
2021/07/11 08:00:17;;;;;;;2.02;1.70;;;;;;;26.20;48.03;100766.34;1766555;80;22558;-74
2021/07/11 08:02:43;;;;;;;6.30;2.05;;;;;;;26.24;47.95;100762.83;1768784;80;21011;-74
2021/07/11 08:05:10;;;;;;;6.58;1.90;;;;;;;26.24;47.91;100766.92;1768623;81;20999;-74
2021/07/11 08:07:36;;;;;;;7.25;2.45;;;;;;;26.32;47.83;100766.41;1768633;80;21082;-74
2021/07/11 08:10:04;;;;;;;5.53;2.30;;;;;;;26.32;47.54;100761.47;1765049;80;20984;-74
2021/07/11 08:12:31;;;;;;;3.33;2.23;;;;;;;26.13;47.18;100767.91;1767522;80;21792;-74
2021/07/11 08:14:57;;;;;;;5.03;2.05;;;;;;;26.33;47.51;100773.53;1768327;81;20987;-74
2021/07/11 08:17:23;;;;;;;3.72;1.70;;;;;;;26.51;47.57;100769.53;1762107;80;21004;-74
2021/07/11 08:19:49;;;;;;;2.12;1.60;;;;;;;26.46;47.52;100761.28;1758521;81;21008;-74
2021/07/11 08:22:15;;;;;;;3.35;1.77;;;;;;;26.31;47.59;100763.41;1758741;81;21456;-74
2021/07/11 08:24:41;;;;;;;3.15;2.02;;;;;;;26.35;47.65;100766.98;1758763;81;22650;-74
2021/07/11 08:27:07;;;;;;;3.33;1.87;;;;;;;26.36;47.44;100763.13;1758844;81;21819;-74
2021/07/11 08:29:33;;;;;;;2.85;1.47;;;;;;;26.44;47.39;100756.63;1749283;81;21031;-74
2021/07/11 08:31:59;;;;;;;4.03;2.20;;;;;;;26.67;47.33;100759.48;1742657;82;20992;-74
2021/07/11 08:34:25;;;;;;;4.72;1.80;;;;;;;26.49;46.89;100765.42;1743397;81;21043;-74
2021/07/11 08:36:57;;;;;;;6.05;2.22;;;;;;;26.10;46.71;100757.50;1745669;80;21866;-74
2021/07/11 08:39:19;;;;;;;3.58;1.70;;;;;;;25.95;46.85;100768.32;1765958;80;21035;-74
2021/07/11 08:41:46;;;;;;;3.25;1.92;;;;;;;26.11;46.84;100759.13;1766695;81;21109;-74
2021/07/11 08:44:12;;;;;;;5.03;2.25;;;;;;;26.15;46.36;100762.98;1768696;80;20984;-74
2021/07/11 08:46:38;;;;;;;2.87;1.80;;;;;;;26.09;45.93;100764.59;1769358;80;21460;-74
2021/07/11 08:49:06;;;;;;;6.78;2.50;;;;;;;26.24;46.02;100766.92;1767616;80;21836;-74
2021/07/11 08:51:33;;;;;;;3.83;1.90;;;;;;;26.29;45.83;100761.47;1767735;81;21040;-74
2021/07/11 08:53:59;;;;;;;3.22;1.70;;;;;;;26.15;45.86;100773.92;1769241;80;20997;-74
2021/07/11 08:56:28;;;;;;;4.28;1.82;;;;;;;26.10;45.97;100772.55;1768700;80;21023;-74
2021/07/11 08:58:56;;;;;;;3.12;1.95;;;;;;;26.26;46.08;100774.31;1740536;82;21620;-74
2021/07/11 09:01:27;;;;;;;2.90;1.80;;;;;;;26.41;46.14;100771.38;1742725;82;21962;-74
2021/07/11 09:04:11;;;;;;;4.75;2.17;;;;;;;26.42;45.93;100775.78;1746523;81;20974;-74
2021/07/11 09:06:48;;;;;;;5.42;2.08;;;;;;;26.42;45.91;100770.30;1768992;80;21499;-74
2021/07/11 09:09:28;;;;;;;2.65;2.02;;;;;;;26.39;45.51;100777.67;1768629;80;21001;-74
2021/07/11 09:12:06;;;;;;;5.72;1.80;;;;;;;26.32;45.43;100778.71;1756453;81;20995;-74
2021/07/11 09:14:36;;;;;;;2.60;1.60;;;;;;;26.45;45.24;100777.98;1758945;81;22682;-74
2021/07/11 09:17:03;;;;;;;3.42;1.50;;;;;;;26.40;44.71;100784.77;1767170;80;20972;-74
2021/07/11 09:19:38;;;;;;;2.75;1.72;;;;;;;26.52;44.80;100778.02;1766196;81;21380;-74
2021/07/11 09:22:08;;;;;;;3.95;1.70;;;;;;;26.78;44.84;100772.10;1763764;80;20952;-74
2021/07/11 09:24:36;;;;;;;2.22;1.65;;;;;;;26.92;44.66;100778.75;1742990;80;21054;-74
2021/07/11 09:27:14;;;;;;;4.40;1.77;;;;;;;26.86;44.52;100781.20;1761466;81;22840;-74
2021/07/11 09:29:41;;;;;;;2.83;2.35;;;;;;;26.97;44.68;100787.00;1765961;81;21007;-74
2021/07/11 09:32:08;;;;;;;4.45;2.10;;;;;;;26.91;44.66;100784.52;1761658;81;21004;-74
2021/07/11 09:34:35;;;;;;;3.67;1.90;;;;;;;27.03;44.74;100783.72;1741443;81;22263;-74
2021/07/11 09:37:11;;;;;;;6.20;2.35;;;;;;;27.03;44.75;100786.45;1740580;81;21036;-74
2021/07/11 09:39:47;;;;;;;3.37;1.85;;;;;;;27.24;44.72;100793.09;1739984;82;40602;-74
2021/07/11 09:42:34;;;;;;;2.52;1.70;;;;;;;27.14;44.24;100784.86;1736299;81;21551;-74
2021/07/11 09:45:17;;;;;;;3.67;1.90;;;;;;;26.76;44.19;100787.98;1735796;82;21031;-74
2021/07/11 09:47:44;;;;;;;5.55;1.72;;;;;;;26.73;44.45;100781.13;1741069;81;20992;-74
2021/07/11 09:50:21;;;;;;;2.12;1.57;;;;;;;26.89;44.35;100782.03;1767508;81;21023;-74
2021/07/11 09:52:54;;;;;;;3.17;1.72;;;;;;;27.00;44.23;100787.83;1764612;80;22747;-74
2021/07/11 09:55:23;;;;;;;3.95;1.90;;;;;;;26.91;43.76;100783.15;1763072;81;21010;-74
2021/07/11 09:57:52;;;;;;;2.70;1.72;;;;;;;26.93;43.92;100776.84;1763265;80;20999;-74
2021/07/11 10:00:32;;;;;;;2.05;1.85;;;;;;;26.94;43.98;100776.59;1763464;81;20920;-74
2021/07/11 10:03:10;;;;;;;3.75;1.57;;;;;;;26.96;44.09;100774.39;1744962;80;21508;-74
2021/07/11 10:05:36;;;;;;;3.50;1.80;;;;;;;27.06;44.08;100774.96;1748470;80;21875;-74
2021/07/11 10:08:02;;;;;;;3.00;1.67;;;;;;;26.92;44.11;100780.13;1738430;81;21506;-74
2021/07/11 10:10:33;;;;;;;3.35;1.50;;;;;;;27.12;44.33;100776.10;1736298;82;21465;-74
2021/07/11 10:13:00;;;;;;;2.47;1.70;;;;;;;27.38;44.31;100770.11;1737807;81;21455;-74
2021/07/11 10:15:28;;;;;;;4.92;1.57;;;;;;;27.62;44.01;100775.38;1729673;81;21020;-73
2021/07/11 10:18:07;;;;;;;3.00;1.80;;;;;;;27.51;43.60;100771.55;1724659;82;22315;-74
2021/07/11 10:20:46;;;;;;;2.22;2.02;;;;;;;27.55;43.52;100767.97;1730752;82;28854;-74
2021/07/11 10:23:33;;;;;;;5.77;1.60;;;;;;;27.54;43.31;100764.97;1738893;81;21027;-74
2021/07/11 10:26:04;;;;;;;2.52;1.85;;;;;;;27.60;43.09;100771.27;1737337;81;21039;-74
2021/07/11 10:28:32;;;;;;;2.80;1.70;;;;;;;27.31;42.79;100769.01;1744473;81;21060;-74
2021/07/11 10:30:58;;;;;;;2.90;1.60;;;;;;;27.20;42.65;100770.08;1741545;82;21919;-74
2021/07/11 10:33:25;;;;;;;1.87;1.62;;;;;;;27.16;42.64;100771.70;1738855;80;21580;-74
2021/07/11 10:36:04;;;;;;;2.17;1.77;;;;;;;27.16;42.64;100778.55;1735544;82;21008;-74
2021/07/11 10:38:53;;;;;;;5.37;2.17;;;;;;;27.07;42.49;100767.86;1742315;81;21504;-74
2021/07/11 10:41:31;;;;;;;2.87;1.75;;;;;;;27.12;42.63;100774.73;1755988;80;21019;-74
2021/07/11 10:44:12;;;;;;;6.97;2.02;;;;;;;27.23;42.56;100769.53;1735515;82;21841;-74
2021/07/11 10:46:53;;;;;;;3.67;2.47;;;;;;;27.42;42.64;100771.76;1723155;82;21531;-74
2021/07/11 10:49:27;;;;;;;4.65;1.87;;;;;;;27.30;42.36;100764.61;1709024;83;21012;-74
2021/07/11 10:51:57;;;;;;;2.20;2.00;;;;;;;27.41;42.39;100761.34;1700977;82;21018;-74
2021/07/11 10:54:33;;;;;;;3.20;2.47;;;;;;;27.45;42.12;100765.77;1733259;82;21008;-74
2021/07/11 10:57:09;;;;;;;2.70;1.95;;;;;;;27.54;42.12;100764.14;1743226;81;21939;-74
2021/07/11 10:59:41;;;;;;;3.95;1.92;;;;;;;27.65;41.95;100763.06;1719032;83;21047;-74
2021/07/11 11:02:23;;;;;;;3.65;2.05;;;;;;;27.66;41.98;100757.29;1738607;81;21016;-74
2021/07/11 11:05:01;;;;;;;6.45;3.20;;;;;;;27.50;42.03;100757.56;1730991;82;21409;-74
2021/07/11 11:07:41;;;;;;;7.15;3.47;;;;;;;27.04;42.13;100765.66;1730742;82;21480;-74
2021/07/11 11:10:21;;;;;;;4.58;2.45;;;;;;;26.80;42.46;100757.62;1729081;80;21961;-74
2021/07/11 11:13:09;;;;;;;5.75;2.87;;;;;;;26.78;42.57;100755.67;1727913;80;21048;-74
2021/07/11 11:15:51;;;;;;;6.47;2.50;;;;;;;26.77;42.64;100754.88;1743086;80;21125;-74
2021/07/11 11:18:33;;;;;;;4.97;2.30;;;;;;;26.52;42.72;100767.62;1741276;82;20893;-74
2021/07/11 11:21:11;;;;;;;2.52;2.10;;;;;;;26.19;42.74;100766.88;1738874;81;21051;-74
2021/07/11 11:23:43;;;;;;;4.00;2.10;;;;;;;26.26;42.88;100755.16;1740004;81;21582;-74
2021/07/11 11:26:10;;;;;;;4.40;2.40;;;;;;;26.55;42.97;100749.30;1735374;80;21586;-74
2021/07/11 11:28:40;;;;;;;8.58;3.25;;;;;;;26.97;42.99;100755.52;1736856;81;21008;-74
2021/07/11 11:31:14;;;;;;;2.87;2.10;;;;;;;27.09;42.54;100753.91;1742093;81;20996;-74